Observations for JERSEY AIRPORT, United Kingdom (EGJJ)

EGJJ 202220Z 24015KT 9999 BKN010 12/10 Q1018
EGJJ 202150Z 24016KT 9999 BKN010 11/10 Q1018
EGJJ 202120Z 24015KT 9999 SCT010 11/10 Q1018
EGJJ 202050Z 24014KT 9999 SCT011 11/10 Q1019
EGJJ 202020Z 24016KT 9999 SCT012 12/10 Q1019
EGJJ 201950Z 24015KT 9999 FEW013 12/10 Q1019
EGJJ 201920Z 24017KT 9999 FEW014 12/10 Q1019
EGJJ 201850Z 24018KT 9999 FEW014 12/10 Q1019
EGJJ 201820Z 24016KT 9999 FEW014 12/10 Q1018
EGJJ 201750Z 24015KT 9999 FEW014 12/10 Q1019
EGJJ 201720Z 24011KT 9999 FEW014 12/10 Q1019
EGJJ 201650Z 23008KT 9999 FEW014 12/10 Q1019
EGJJ 201620Z 24010KT 9999 FEW014 12/10 Q1019
EGJJ 201550Z 24012KT 9999 FEW014 12/10 Q1019
EGJJ 201520Z 24012KT 9999 FEW009 13/10 Q1019
EGJJ 201450Z 24013KT 9999 FEW009 13/10 Q1019
EGJJ 201420Z 24013KT 9999 FEW009 12/11 Q1019
EGJJ 201350Z 24014KT 9999 FEW009 SCT019 13/11 Q1020 
EGJJ 201320Z 23011KT 9999 FEW010 BKN014 12/10 Q1020 
EGJJ 201250Z 23013KT 9999 FEW012 BKN015 12/10 Q1020 
EGJJ 201220Z 23015KT 9999 SCT014 BKN019 12/10 Q1020 
EGJJ 201150Z 23015KT 9999 FEW012 BKN014 12/10 Q1021 
EGJJ 201120Z 23016KT 9999 FEW012 BKN015 12/10 Q1021 
EGJJ 201050Z 23017KT 9999 FEW012 BKN022 12/10 Q1021 
EGJJ 201020Z 23017KT 9999 FEW012 SCT015 BKN026 12/10 Q1021  
EGJJ 200950Z 24019KT 9999 FEW016 SCT026 12/10 Q1021 
EGJJ 200920Z 24019KT 9999 FEW016 SCT026 12/10 Q1021 
EGJJ 200850Z 24019KT 9999 FEW016 BKN026 11/10 Q1021 
EGJJ 200820Z 24017KT 9999 FEW014 BKN024 11/10 Q1021 
EGJJ 200750Z 24017KT 9999 FEW014 BKN024 11/09 Q1021 
EGJJ 200720Z 24018KT 9999 FEW014 BKN023 11/09 Q1021 
EGJJ 200650Z 24018KT 9999 FEW014 BKN021 11/09 Q1021 
EGJJ 200620Z 25015KT 9999 FEW014 BKN021 11/09 Q1021 
EGJJ 200550Z 24015KT 9999 BKN012 11/10 Q1022
EGJJ 200520Z AUTO 25014KT 9999 BKN010/// BKN012/// BKN015/// 11/10 Q1022
EGJJ 200450Z AUTO 24016KT 9999 BKN011/// BKN014/// BKN018/// 11/10 Q1022
EGJJ 200420Z AUTO 25015KT 9999 FEW013/// 11/09 Q1022
EGJJ 200350Z AUTO 25015KT 9999 FEW014/// OVC024/// 11/09 Q1022  
EGJJ 200320Z AUTO 24013KT 9999 FEW009/// BKN012/// BKN015/// 11/11 Q1022
EGJJ 200250Z AUTO 24012KT 9999 FEW006/// BKN007/// BKN009/// 11/11 Q1022
EGJJ 200220Z AUTO 24013KT 9999 OVC005/// 11/11 Q1022
EGJJ 200150Z AUTO 23014KT 9999 BKN005/// OVC006/// 11/11 Q1022  
EGJJ 200120Z AUTO 24010KT 9999 2700 BR SCT011/// SCT014/// BKN017/// 12/11 Q1022
EGJJ 200050Z AUTO 24007KT 9999 SCT011/// 11/11 Q1023 REDZ   
EGJJ 200020Z AUTO 22007KT 9999 2300 SCT006/// SCT008/// BKN011/// 12/12 Q1023 REDZ  
EGJJ 192350Z AUTO 22006KT 9999 2400 BR FEW005/// BKN012/// OVC014/// 11/11 Q1024
EGJJ 192320Z AUTO 22006KT 9999 2800 FEW003/// SCT006/// BKN015/// 11/11 Q1024 RERA  
EGJJ 192250Z AUTO 18006KT 3200 BKN005/// BKN007/// BKN032/// 11/11 Q1024 RERA   
EGJJ 192220Z AUTO 19005KT 7000 3400 -DZ FEW012/// BKN024/// BKN027/// 11/10 Q1024   
EGJJ 192150Z 18007KT 9999 BKN036 11/09 Q1025